EDFM/MHG METAR and TAF weather

Enter ICAO airport designator
Station Type Date Time Source
EDFM METAR 2020/11/25 19:50 UTC NOAA

EDFM 251950Z VRB03KT 0700 R27/0650D FG OVC000 02/01 Q1022


Station Type Date Time Source
EDFM Decoded METAR 2020/11/25 19:50 UTC NOAA

Baden Wurttemberg, Neuostheim, Germany (EDFM) 49-28-21N 008-30-56E
Nov 25, 2020 - 02:50 PM EST / 2020.11.25 1950 UTC
Wind: Variable at 3 MPH (3 KT):0
Visibility: less than 1 mile:0
Sky conditions: overcast
Weather: fog
Temperature: 35 F (2 C)
Dew Point: 33 F (1 C)
Relative Humidity: 93%
Pressure (altimeter): 30.18 in. Hg (1022 hPa)
ob: EDFM 251950Z VRB03KT 0700 R27/0650D FG OVC000 02/01 Q1022
cycle: 20

Station Type Date Time Source
EDFM TAF 2012/03/06 06:30 UTC NOAA

TAF EDFM 060519Z 0606/0621 15004KT 9999 FEW040

Example: see airport list